aviador You're here:

YBWP Decoded Metar

WEIPA in AUSTRALIA
Report Time2018-06-21 21:00:00
UTC Time2018-06-21 21:47:41
Flight Rules unknown UNKNOWN
Wind120° at 05 kt
W.Decomp.*RWY 12: 5.0 kt HW 0.5 kt LCW
W.Rank120° ranks 3
Current wind is below 120° avg. (7.0)
VisibilityN/A
Phenomena:N/A
Clouds:N/A
Expected CloudBase > 800 ft AGL from Temp-Dew spread
CeilingNone
Temp19°C (ISA +4)
Dew Point17°C (88% RH)
QNH1015 hPa
Density Alt705 ft
Elevation39 ft
Report Wrong Elevation
Raw Report
METAR YBWP 212100Z AUTO 12005KT //// // ////// 19/17 Q1015=

Extra information for YBWP:More info

Metar Taf Metar & Taf Last 4 Metars F.Rules Stats Wind Profile Meteogram Temp Stats Airport Information Weather charts Add Link Nearby VenuesMetar ALERT Operation Metar Decoded Social comments